Main page
METAR-TAF:

METAR-TAF

Airports :

Lal Bahadur Shastri International Airport

Varanasi, India

latitude: 25-27N, longitude: 082-52E, elevation: 81 m

Current weather observation

The report was made 21 minutes ago, at 13:30 UTC
Wind 4 kt from the West/Southwest
Temperature 38°C
Humidity 16%
Pressure 1003 hPa
Visibility: 4000 m
haze

METAR: VEBN 201330Z 25004KT 4000 HZ NSC 38/08 Q1003 NOSIG

Time: 19:21 (13:51 UTC)

Forecast

The report was made 2 hours and 51 minutes ago, at 11:00 UTC
Forecast valid from 20 at 12 UTC to 20 at 21 UTC
Wind 6 kt from the West
Visibility: 5000 m
haze
Becoming
from 20 at 15 UTC to 20 at 17 UTC
Wind 2 kt from variable directions
Visibility: 3000 m
haze

TAF: VEBN 201100Z 2012/2021 27006KT 5000 HZ NSC BECMG 2015/2017 VRB02KT 3000 HZ

Weather observations and forecasts of more than 4000 airports (METAR and TAF reports).

The available stations are represented by yellow and red dots on the map.

Hover mouse over dot to see the name of the station.

Then click to see weather observations and forecasts.

To change the map : click on the green buttons with a black cross to zoom in, on the green button with a dash to zoom out, or on the green arrows for adjacent maps.


METAR-TAF: